Tiwala — V2DX3 — position and weather

sailwx.info

Track history (hours):
 
Tides and Currents Weather Stations Pressure Air Temp Water Temp Dewpoint Dewpoint Depression Visibility Wind Speed Wind Dir Waves Ship Positions

Tiwala

Last reported at 2017-Nov-19 10:27 UTC. Time now 2017-Nov-19 10:36 UTC.
Position N 49°04' W 004°36'.

Length 107 m; draft 5.5 m.

Type: Ship. MMSI: 305364000.

Date/timePositionNaut miles runAvg speedWind from/ knotsBaromVisibWave heightAir tempDewpointWater temp
2017-Nov-19 10:27N 49°04' W 004°36'0 0.4
2017-Nov-19 10:00N 49°05' W 004°36'0 0.1
2017-Nov-19 09:14N 49°04' W 004°36'8 8.7
2017-Nov-19 08:22N 49°01' W 004°46'6 9.1
2017-Nov-19 07:45N 48°58' W 004°53'2 9.5
2017-Nov-19 07:30N 48°57' W 004°57'5 9.8
2017-Nov-19 07:01N 48°55' W 005°03'510.1
2017-Nov-19 06:29N 48°53' W 005°10'510.5
2017-Nov-19 06:00N 48°51' W 005°18'511.0
2017-Nov-19 05:30N 48°49' W 005°26'611.2
2017-Nov-19 05:00N 48°46' W 005°33'5 9.7
2017-Nov-19 04:29N 48°42' W 005°37'5 8.5
2017-Nov-19 03:54N 48°38' W 005°41'5 8.8
2017-Nov-19 03:19N 48°34' W 005°45'510.6
2017-Nov-19 02:54N 48°30' W 005°48'511.3
2017-Nov-19 02:29N 48°25' W 005°48'611.5
2017-Nov-19 02:00N 48°19' W 005°48'611.4
2017-Nov-19 01:30N 48°14' W 005°48'811.3
2017-Nov-19 00:46N 48°05' W 005°49'311.1
2017-Nov-19 00:30N 48°03' W 005°49'610.8
2017-Nov-19 00:00N 47°57' W 005°49'510.6
2017-Nov-18 23:31N 47°52' W 005°50'610.4
2017-Nov-18 22:58N 47°46' W 005°50'510.3
2017-Nov-18 22:30N 47°41' W 005°51'610.0
2017-Nov-18 21:53N 47°35' W 005°51'4 9.9
2017-Nov-18 21:29N 47°31' W 005°51'5 9.5
2017-Nov-18 20:59N 47°27' W 005°51'7 9.5
2017-Nov-18 20:17N 47°20' W 005°52'3 9.2
2017-Nov-18 19:57N 47°17' W 005°52'5 9.4
2017-Nov-18 19:26N 47°12' W 005°51'5 9.9
2017-Nov-18 18:57N 47°07' W 005°51'510.2
2017-Nov-18 18:29N 47°02' W 005°51'610.1
2017-Nov-18 17:54N 46°57' W 005°51'610.2
2017-Nov-18 17:18N 46°50' W 005°51'310.0
2017-Nov-18 17:00N 46°47' W 005°52'710.2
2017-Nov-18 16:19N 46°40' W 005°52'410.3
2017-Nov-18 15:57N 46°37' W 005°52'1010.5
2017-Nov-18 14:58N 46°26' W 005°53'  
2017-Nov-16 06:47N 43°37' W 005°58'2 6.4
2017-Nov-16 06:30N 43°39' W 005°58'5 9.0
2017-Nov-16 06:00N 43°43' W 005°59'4 9.2
2017-Nov-16 05:31N 43°48' W 005°59'138 7.5
2017-Nov-15 11:05N 46°06' W 006°07'51 9.5
2017-Nov-15 05:42N 46°57' W 006°12'4 9.6
2017-Nov-15 05:16N 47°01' W 006°13'3 9.7
2017-Nov-15 04:57N 47°04' W 006°13'4 9.9
2017-Nov-15 04:30N 47°08' W 006°13'7 9.7
2017-Nov-15 03:49N 47°15' W 006°14'3 9.6
2017-Nov-15 03:28N 47°18' W 006°14'5 9.6
2017-Nov-15 03:00N 47°23' W 006°14'712.3
2017-Nov-15 02:25N 47°30' W 006°15'3 6.7
2017-Nov-15 02:00N 47°33' W 006°15'5 9.6
2017-Nov-15 01:30N 47°37' W 006°15'5 9.3
2017-Nov-15 01:00N 47°42' W 006°16'5 9.1
2017-Nov-15 00:29N 47°47' W 006°16'4 9.0
2017-Nov-15 00:00N 47°51' W 006°17'5 8.8
2017-Nov-14 23:24N 47°56' W 006°17'7 8.6
2017-Nov-14 22:34N 48°04' W 006°17'13 9.1
2017-Nov-14 21:05N 48°17' W 006°17'1510.1
2017-Nov-14 19:33N 48°32' W 006°18'810.4
2017-Nov-14 18:48N 48°40' W 006°17'310.6
2017-Nov-14 18:30N 48°43' W 006°15'610.5
2017-Nov-14 17:54N 48°49' W 006°11'410.5
2017-Nov-14 17:30N 48°52' W 006°08'510.1
2017-Nov-14 16:58N 48°57' W 006°04'510.3
2017-Nov-14 16:30N 49°01' W 006°00'510.1
2017-Nov-14 16:00N 49°06' W 005°57'5 8.9
2017-Nov-14 15:29N 49°10' W 005°53'1 2.0
2017-Nov-14 15:00N 49°11' W 005°54'1 1.6
2017-Nov-14 14:28N 49°11' W 005°55'1 1.6
2017-Nov-14 13:58N 49°11' W 005°57'1 1.6
2017-Nov-14 13:29N 49°11' W 005°58'1 1.5
2017-Nov-14 13:00N 49°11' W 005°59'1 1.5
2017-Nov-14 12:30N 49°11' W 006°00'1 1.5
2017-Nov-14 12:00N 49°11' W 006°01'1 1.5
2017-Nov-14 11:30N 49°11' W 006°02'1 1.3
2017-Nov-14 11:00N 49°11' W 006°03'1 1.1
2017-Nov-14 10:25N 49°11' W 006°04'0 1.0
2017-Nov-14 09:59N 49°11' W 006°05'0 0.7
2017-Nov-14 09:26N 49°11' W 006°05'0 0.6
2017-Nov-14 08:56N 49°11' W 006°06'0 0.6
2017-Nov-14 08:23N 49°11' W 006°06'0 0.5
2017-Nov-14 07:58N 49°11' W 006°06'0 0.6
2017-Nov-14 07:27N 49°11' W 006°07'0 0.6
2017-Nov-14 06:53N 49°12' W 006°07'0 0.8
2017-Nov-14 06:20N 49°12' W 006°07'0 0.9
2017-Nov-14 05:55N 49°12' W 006°08'0 0.9
2017-Nov-14 05:30N 49°13' W 006°08'1 1.0
2017-Nov-14 04:58N 49°13' W 006°09'1 1.1
2017-Nov-14 04:30N 49°13' W 006°09'1 1.3
2017-Nov-14 04:00N 49°14' W 006°10'1 1.3
2017-Nov-14 03:30N 49°14' W 006°11'1 1.4
2017-Nov-14 03:00N 49°14' W 006°12'2 1.5
2017-Nov-14 01:20N 49°14' W 006°16'1 1.4
2017-Nov-14 00:43N 49°14' W 006°17'0 1.4
2017-Nov-14 00:30N 49°14' W 006°18'2 1.2
2017-Nov-13 23:13N 49°14' W 006°20'0 1.1
2017-Nov-13 23:00N 49°14' W 006°20'1 0.9
2017-Nov-13 22:21N 49°14' W 006°21'0 0.7
2017-Nov-13 21:56N 49°14' W 006°22'172 8.2
2017-Nov-13 00:57N 51°21' W 003°21'3 7.1
2017-Nov-13 00:30N 51°21' W 003°16'4 6.6
2017-Nov-12 23:51N 51°23' W 003°11'3 7.4
2017-Nov-12 23:24N 51°27' W 003°10'  
2017-Nov-09 16:57N 51°27' W 003°09'  
Track history (hours):
 
Tides and Currents Weather Stations Pressure Air Temp Water Temp Dewpoint Dewpoint Depression Visibility Wind Speed Wind Dir Waves Ship Positions

Tiwala

Last reported at 2017-Nov-19 10:27 UTC. Time now 2017-Nov-19 10:36 UTC.
Position N 49°04' W 004°36'.

Length 107 m; draft 5.5 m.

Type: Ship. MMSI: 305364000.

Date/timePositionNaut miles runAvg speedWind from/ knotsBaromVisibWave heightAir tempDewpointWater temp
2017-Nov-19 10:27N 49°04' W 004°36'0 0.4
2017-Nov-19 10:00N 49°05' W 004°36'0 0.1
2017-Nov-19 09:14N 49°04' W 004°36'8 8.7
2017-Nov-19 08:22N 49°01' W 004°46'6 9.1
2017-Nov-19 07:45N 48°58' W 004°53'2 9.5
2017-Nov-19 07:30N 48°57' W 004°57'5 9.8
2017-Nov-19 07:01N 48°55' W 005°03'510.1
2017-Nov-19 06:29N 48°53' W 005°10'510.5
2017-Nov-19 06:00N 48°51' W 005°18'511.0
2017-Nov-19 05:30N 48°49' W 005°26'611.2
2017-Nov-19 05:00N 48°46' W 005°33'5 9.7
2017-Nov-19 04:29N 48°42' W 005°37'5 8.5
2017-Nov-19 03:54N 48°38' W 005°41'5 8.8
2017-Nov-19 03:19N 48°34' W 005°45'510.6
2017-Nov-19 02:54N 48°30' W 005°48'511.3
2017-Nov-19 02:29N 48°25' W 005°48'611.5
2017-Nov-19 02:00N 48°19' W 005°48'611.4
2017-Nov-19 01:30N 48°14' W 005°48'811.3
2017-Nov-19 00:46N 48°05' W 005°49'311.1
2017-Nov-19 00:30N 48°03' W 005°49'610.8
2017-Nov-19 00:00N 47°57' W 005°49'510.6
2017-Nov-18 23:31N 47°52' W 005°50'610.4
2017-Nov-18 22:58N 47°46' W 005°50'510.3
2017-Nov-18 22:30N 47°41' W 005°51'610.0
2017-Nov-18 21:53N 47°35' W 005°51'4 9.9
2017-Nov-18 21:29N 47°31' W 005°51'5 9.5
2017-Nov-18 20:59N 47°27' W 005°51'7 9.5
2017-Nov-18 20:17N 47°20' W 005°52'3 9.2
2017-Nov-18 19:57N 47°17' W 005°52'5 9.4
2017-Nov-18 19:26N 47°12' W 005°51'5 9.9
2017-Nov-18 18:57N 47°07' W 005°51'510.2
2017-Nov-18 18:29N 47°02' W 005°51'610.1
2017-Nov-18 17:54N 46°57' W 005°51'610.2
2017-Nov-18 17:18N 46°50' W 005°51'310.0
2017-Nov-18 17:00N 46°47' W 005°52'710.2
2017-Nov-18 16:19N 46°40' W 005°52'410.3
2017-Nov-18 15:57N 46°37' W 005°52'1010.5
2017-Nov-18 14:58N 46°26' W 005°53'  
2017-Nov-16 06:47N 43°37' W 005°58'2 6.4
2017-Nov-16 06:30N 43°39' W 005°58'5 9.0
2017-Nov-16 06:00N 43°43' W 005°59'4 9.2
2017-Nov-16 05:31N 43°48' W 005°59'138 7.5
2017-Nov-15 11:05N 46°06' W 006°07'51 9.5
2017-Nov-15 05:42N 46°57' W 006°12'4 9.6
2017-Nov-15 05:16N 47°01' W 006°13'3 9.7
2017-Nov-15 04:57N 47°04' W 006°13'4 9.9
2017-Nov-15 04:30N 47°08' W 006°13'7 9.7
2017-Nov-15 03:49N 47°15' W 006°14'3 9.6
2017-Nov-15 03:28N 47°18' W 006°14'5 9.6
2017-Nov-15 03:00N 47°23' W 006°14'712.3
2017-Nov-15 02:25N 47°30' W 006°15'3 6.7
2017-Nov-15 02:00N 47°33' W 006°15'5 9.6
2017-Nov-15 01:30N 47°37' W 006°15'5 9.3
2017-Nov-15 01:00N 47°42' W 006°16'5 9.1
2017-Nov-15 00:29N 47°47' W 006°16'4 9.0
2017-Nov-15 00:00N 47°51' W 006°17'5 8.8
2017-Nov-14 23:24N 47°56' W 006°17'7 8.6
2017-Nov-14 22:34N 48°04' W 006°17'13 9.1
2017-Nov-14 21:05N 48°17' W 006°17'1510.1
2017-Nov-14 19:33N 48°32' W 006°18'810.4
2017-Nov-14 18:48N 48°40' W 006°17'310.6
2017-Nov-14 18:30N 48°43' W 006°15'610.5
2017-Nov-14 17:54N 48°49' W 006°11'410.5
2017-Nov-14 17:30N 48°52' W 006°08'510.1
2017-Nov-14 16:58N 48°57' W 006°04'510.3
2017-Nov-14 16:30N 49°01' W 006°00'510.1
2017-Nov-14 16:00N 49°06' W 005°57'5 8.9
2017-Nov-14 15:29N 49°10' W 005°53'1 2.0
2017-Nov-14 15:00N 49°11' W 005°54'1 1.6
2017-Nov-14 14:28N 49°11' W 005°55'1 1.6
2017-Nov-14 13:58N 49°11' W 005°57'1 1.6
2017-Nov-14 13:29N 49°11' W 005°58'1 1.5
2017-Nov-14 13:00N 49°11' W 005°59'1 1.5
2017-Nov-14 12:30N 49°11' W 006°00'1 1.5
2017-Nov-14 12:00N 49°11' W 006°01'1 1.5
2017-Nov-14 11:30N 49°11' W 006°02'1 1.3
2017-Nov-14 11:00N 49°11' W 006°03'1 1.1
2017-Nov-14 10:25N 49°11' W 006°04'0 1.0
2017-Nov-14 09:59N 49°11' W 006°05'0 0.7
2017-Nov-14 09:26N 49°11' W 006°05'0 0.6
2017-Nov-14 08:56N 49°11' W 006°06'0 0.6
2017-Nov-14 08:23N 49°11' W 006°06'0 0.5
2017-Nov-14 07:58N 49°11' W 006°06'0 0.6
2017-Nov-14 07:27N 49°11' W 006°07'0 0.6
2017-Nov-14 06:53N 49°12' W 006°07'0 0.8
2017-Nov-14 06:20N 49°12' W 006°07'0 0.9
2017-Nov-14 05:55N 49°12' W 006°08'0 0.9
2017-Nov-14 05:30N 49°13' W 006°08'1 1.0
2017-Nov-14 04:58N 49°13' W 006°09'1 1.1
2017-Nov-14 04:30N 49°13' W 006°09'1 1.3
2017-Nov-14 04:00N 49°14' W 006°10'1 1.3
2017-Nov-14 03:30N 49°14' W 006°11'1 1.4
2017-Nov-14 03:00N 49°14' W 006°12'2 1.5
2017-Nov-14 01:20N 49°14' W 006°16'1 1.4
2017-Nov-14 00:43N 49°14' W 006°17'0 1.4
2017-Nov-14 00:30N 49°14' W 006°18'2 1.2
2017-Nov-13 23:13N 49°14' W 006°20'0 1.1
2017-Nov-13 23:00N 49°14' W 006°20'1 0.9
2017-Nov-13 22:21N 49°14' W 006°21'0 0.7
2017-Nov-13 21:56N 49°14' W 006°22'172 8.2
2017-Nov-13 00:57N 51°21' W 003°21'3 7.1
2017-Nov-13 00:30N 51°21' W 003°16'4 6.6
2017-Nov-12 23:51N 51°23' W 003°11'3 7.4
2017-Nov-12 23:24N 51°27' W 003°10'  
2017-Nov-09 16:57N 51°27' W 003°09'  

Dump ship's entire track history